Moriches, NY (11955)

2:14 AM EDT on August 30, 2016 (GMT -0400)
Long Island's South Shore | | Change Station
Active Advisory: Coastal Hazard Statement

Elev 24 ft 40.78 °N, 72.83 °W | Updated 1 minute ago

Clear
Clear
69.1 °F
Feels Like 69.1 °F
N
0.0
Wind Variable Wind from North
Gusts 0.0 mph

Today
High -- | Low -- °F
--% Chance of Precip.
Yesterday
High -- | Low -- °F
Precip. -- in
Pressure 30.14 in
Visibility 10.0 miles
Clouds Clear
Dew Point 42 °F
Humidity 38%
Rainfall Not available.
Snow Depth Not available.
6:16 AM 7:26 PM
Waning Crescent, 5% visible
METAR KHWV 300556Z AUTO 02004KT 10SM CLR 19/15 A3014 RMK AO2 SLP205 T01940150 10261 20194 50003 TSNO
Pressure 30.14 in
Visibility 10.0 miles
Clouds Clear
Dew Point 42 °F
Humidity 38%
Rainfall Not available.
Snow Depth Not available.
6:16 AM 7:26 PM
Waning Crescent, 5% visible
METAR KHWV 300556Z AUTO 02004KT 10SM CLR 19/15 A3014 RMK AO2 SLP205 T01940150 10261 20194 50003 TSNO

10-Day Weather Forecast

Almanac

Astronomy

Aug. 30, 2016 Rise Set
Actual Time
Civil Twilight
Nautical Twilight
Astronomical Twilight
Moon
Length of Visible Light
Length of Day
Tomorrow will be .
, % of the Moon is Illuminated

Today's Extremes

State Highs State Lows

Community

WunderPhotos

Upload Photos

1,935,795 photos uploaded!

WunderBlog® & News

Nearby

Air Quality

  Air Quality AQ Index Pollutant
Not available.

Snow Depth

Station Depth Elevation

Earthquake Activity

City Distance Mag. Time & Date
Minimum magnitude displayed is 2.5.

Coastal Water Temperatures

Place Temperature

Stations

Nearby Weather Stations

Station Location Temp. Windchill Dew Point Humidity Wind Precip. Elev Updated Type
                   

Watches & Warnings

Coastal Hazard Statement
Issued: 4:11 PM EDT Aug. 29, 2016 – National Weather Service

... High rip current risk now in effect through Tuesday evening...

* locations... the ocean beaches of Kings... southern
Queens... southern Nassau... and southern Suffolk counties.

* Rip current risk... high

* surf height... 3 to 4 feet.

* Lightning risk... none

* timing... through 800 PM EDT Tuesday.

Precautionary/preparedness actions...

Rip currents are powerful channels of water flowing quickly away
from shore... which occur most often at low spots or breaks in The
Sandbar and in the vicinity of structures such as groins...
jetties and piers. Talk to lifeguards and beach officials to
learn about any surf hazards and heed their advice. Pay attention
to flags and posted signs and swim in life guarded areas.

If you become caught in a rip current... Yell for help. Remain
calm... do not exhaust yourself and stay afloat while waiting for
help. If you have to swim out of a rip current... swim parallel to
shore. Once you are away from the force of the rip current...
begin to swim back toward the beach. Do not attempt to swim
directly against a rip current as you will tire quickly.